sensor_id;sensor_type;location;lat;lon;timestamp;temperature;humidity
11140;DHT22;5624;49.388;11.350;2023-09-07T00:02:22;16.50;78.60
11140;DHT22;5624;49.388;11.350;2023-09-07T00:04:47;16.60;78.60
11140;DHT22;5624;49.388;11.350;2023-09-07T00:07:13;16.70;77.90
11140;DHT22;5624;49.388;11.350;2023-09-07T00:09:38;16.60;78.20
11140;DHT22;5624;49.388;11.350;2023-09-07T00:12:04;16.60;78.20
11140;DHT22;5624;49.388;11.350;2023-09-07T00:14:30;16.50;78.40
11140;DHT22;5624;49.388;11.350;2023-09-07T00:16:55;16.30;79.30
11140;DHT22;5624;49.388;11.350;2023-09-07T00:19:22;16.30;79.60
11140;DHT22;5624;49.388;11.350;2023-09-07T00:21:48;16.20;80.20
11140;DHT22;5624;49.388;11.350;2023-09-07T00:24:13;16.30;80.00
11140;DHT22;5624;49.388;11.350;2023-09-07T00:26:41;16.30;79.70
11140;DHT22;5624;49.388;11.350;2023-09-07T00:29:06;16.30;79.50
11140;DHT22;5624;49.388;11.350;2023-09-07T00:31:32;16.30;79.50
11140;DHT22;5624;49.388;11.350;2023-09-07T00:33:58;16.30;79.70
11140;DHT22;5624;49.388;11.350;2023-09-07T00:36:23;16.30;79.30
11140;DHT22;5624;49.388;11.350;2023-09-07T00:38:49;16.30;79.30
11140;DHT22;5624;49.388;11.350;2023-09-07T00:41:14;16.30;79.50
11140;DHT22;5624;49.388;11.350;2023-09-07T00:43:40;16.40;78.90
11140;DHT22;5624;49.388;11.350;2023-09-07T00:46:06;16.40;78.90
11140;DHT22;5624;49.388;11.350;2023-09-07T00:48:32;16.30;79.40
11140;DHT22;5624;49.388;11.350;2023-09-07T00:50:59;16.30;79.60
11140;DHT22;5624;49.388;11.350;2023-09-07T00:53:26;16.20;80.20
11140;DHT22;5624;49.388;11.350;2023-09-07T00:55:52;16.20;79.90
11140;DHT22;5624;49.388;11.350;2023-09-07T00:58:19;16.30;79.70
11140;DHT22;5624;49.388;11.350;2023-09-07T01:00:46;16.20;79.70
11140;DHT22;5624;49.388;11.350;2023-09-07T01:03:11;16.20;80.00
11140;DHT22;5624;49.388;11.350;2023-09-07T01:06:51;16.00;81.10
11140;DHT22;5624;49.388;11.350;2023-09-07T01:08:45;15.90;81.40
11140;DHT22;5624;49.388;11.350;2023-09-07T01:11:15;15.70;81.90
11140;DHT22;5624;49.388;11.350;2023-09-07T01:13:41;15.60;82.90
11140;DHT22;5624;49.388;11.350;2023-09-07T01:16:08;15.60;83.20
11140;DHT22;5624;49.388;11.350;2023-09-07T01:18:35;15.60;83.20
11140;DHT22;5624;49.388;11.350;2023-09-07T01:21:05;15.70;82.60
11140;DHT22;5624;49.388;11.350;2023-09-07T01:23:31;15.80;82.00
11140;DHT22;5624;49.388;11.350;2023-09-07T01:25:57;15.80;82.10
11140;DHT22;5624;49.388;11.350;2023-09-07T01:28:23;15.60;82.30
11140;DHT22;5624;49.388;11.350;2023-09-07T01:30:51;15.50;83.20
11140;DHT22;5624;49.388;11.350;2023-09-07T01:33:17;15.50;83.50
11140;DHT22;5624;49.388;11.350;2023-09-07T01:35:43;15.60;83.40
11140;DHT22;5624;49.388;11.350;2023-09-07T01:38:09;15.50;83.70
11140;DHT22;5624;49.388;11.350;2023-09-07T01:40:34;15.60;83.20
11140;DHT22;5624;49.388;11.350;2023-09-07T01:43:01;15.60;83.00
11140;DHT22;5624;49.388;11.350;2023-09-07T01:45:26;15.60;82.80
11140;DHT22;5624;49.388;11.350;2023-09-07T01:47:52;15.70;82.40
11140;DHT22;5624;49.388;11.350;2023-09-07T01:50:18;15.60;82.90
11140;DHT22;5624;49.388;11.350;2023-09-07T01:52:46;15.60;82.70
11140;DHT22;5624;49.388;11.350;2023-09-07T01:55:13;15.50;83.00
11140;DHT22;5624;49.388;11.350;2023-09-07T01:57:39;15.30;83.60
11140;DHT22;5624;49.388;11.350;2023-09-07T02:00:05;15.10;84.50
11140;DHT22;5624;49.388;11.350;2023-09-07T02:02:31;14.90;85.40
11140;DHT22;5624;49.388;11.350;2023-09-07T02:04:56;14.80;86.20
11140;DHT22;5624;49.388;11.350;2023-09-07T02:07:22;14.70;86.80
11140;DHT22;5624;49.388;11.350;2023-09-07T02:09:48;14.60;87.30
11140;DHT22;5624;49.388;11.350;2023-09-07T02:12:13;14.60;87.80
11140;DHT22;5624;49.388;11.350;2023-09-07T02:14:39;14.60;88.00
11140;DHT22;5624;49.388;11.350;2023-09-07T02:17:04;14.60;88.40
11140;DHT22;5624;49.388;11.350;2023-09-07T02:19:30;14.60;88.10
11140;DHT22;5624;49.388;11.350;2023-09-07T02:21:55;14.50;88.40
11140;DHT22;5624;49.388;11.350;2023-09-07T02:24:21;14.40;88.50
11140;DHT22;5624;49.388;11.350;2023-09-07T02:26:47;14.40;89.00
11140;DHT22;5624;49.388;11.350;2023-09-07T02:29:12;14.40;89.00
11140;DHT22;5624;49.388;11.350;2023-09-07T02:31:39;14.40;89.00
11140;DHT22;5624;49.388;11.350;2023-09-07T02:34:05;14.40;89.10
11140;DHT22;5624;49.388;11.350;2023-09-07T02:36:30;14.40;89.50
11140;DHT22;5624;49.388;11.350;2023-09-07T02:38:56;14.30;89.60
11140;DHT22;5624;49.388;11.350;2023-09-07T02:41:22;14.30;89.70
11140;DHT22;5624;49.388;11.350;2023-09-07T02:43:47;14.30;90.10
11140;DHT22;5624;49.388;11.350;2023-09-07T02:46:13;14.30;90.20
11140;DHT22;5624;49.388;11.350;2023-09-07T02:48:38;14.30;90.50
11140;DHT22;5624;49.388;11.350;2023-09-07T02:51:04;14.20;90.30
11140;DHT22;5624;49.388;11.350;2023-09-07T02:53:29;14.20;91.00
11140;DHT22;5624;49.388;11.350;2023-09-07T02:55:55;14.10;90.60
11140;DHT22;5624;49.388;11.350;2023-09-07T02:58:22;14.10;90.90
11140;DHT22;5624;49.388;11.350;2023-09-07T03:00:48;13.90;91.40
11140;DHT22;5624;49.388;11.350;2023-09-07T03:03:14;13.80;91.40
11140;DHT22;5624;49.388;11.350;2023-09-07T03:05:43;13.70;92.30
11140;DHT22;5624;49.388;11.350;2023-09-07T03:08:09;13.70;92.70
11140;DHT22;5624;49.388;11.350;2023-09-07T03:10:35;13.80;93.30
11140;DHT22;5624;49.388;11.350;2023-09-07T03:13:01;13.90;92.90
11140;DHT22;5624;49.388;11.350;2023-09-07T03:15:27;13.90;92.80
11140;DHT22;5624;49.388;11.350;2023-09-07T03:17:53;14.00;91.80
11140;DHT22;5624;49.388;11.350;2023-09-07T03:20:18;14.00;91.30
11140;DHT22;5624;49.388;11.350;2023-09-07T03:22:44;13.90;91.10
11140;DHT22;5624;49.388;11.350;2023-09-07T03:25:10;13.80;91.50
11140;DHT22;5624;49.388;11.350;2023-09-07T03:27:39;13.70;92.30
11140;DHT22;5624;49.388;11.350;2023-09-07T03:30:06;13.70;92.80
11140;DHT22;5624;49.388;11.350;2023-09-07T03:32:33;13.70;92.90
11140;DHT22;5624;49.388;11.350;2023-09-07T03:35:04;13.70;93.60
11140;DHT22;5624;49.388;11.350;2023-09-07T03:37:35;13.70;93.00
11140;DHT22;5624;49.388;11.350;2023-09-07T03:40:00;13.80;92.50
11140;DHT22;5624;49.388;11.350;2023-09-07T03:42:26;13.80;92.30
11140;DHT22;5624;49.388;11.350;2023-09-07T03:44:51;14.00;91.40
11140;DHT22;5624;49.388;11.350;2023-09-07T03:47:17;14.10;91.00
11140;DHT22;5624;49.388;11.350;2023-09-07T03:49:43;14.10;90.60
11140;DHT22;5624;49.388;11.350;2023-09-07T03:52:09;14.10;90.70
11140;DHT22;5624;49.388;11.350;2023-09-07T03:54:35;14.20;89.70
11140;DHT22;5624;49.388;11.350;2023-09-07T03:57:00;14.30;89.20
11140;DHT22;5624;49.388;11.350;2023-09-07T03:59:27;14.40;88.20
11140;DHT22;5624;49.388;11.350;2023-09-07T04:01:53;14.40;88.10
11140;DHT22;5624;49.388;11.350;2023-09-07T04:04:20;14.40;88.10
11140;DHT22;5624;49.388;11.350;2023-09-07T04:06:47;14.40;88.40
11140;DHT22;5624;49.388;11.350;2023-09-07T04:09:13;14.30;88.50
11140;DHT22;5624;49.388;11.350;2023-09-07T04:11:39;14.20;89.30
11140;DHT22;5624;49.388;11.350;2023-09-07T04:14:05;14.20;89.30
11140;DHT22;5624;49.388;11.350;2023-09-07T04:16:30;14.20;89.40
11140;DHT22;5624;49.388;11.350;2023-09-07T04:18:56;14.20;89.30
11140;DHT22;5624;49.388;11.350;2023-09-07T04:21:22;14.30;88.80
11140;DHT22;5624;49.388;11.350;2023-09-07T04:23:47;14.20;89.10
11140;DHT22;5624;49.388;11.350;2023-09-07T04:26:13;14.30;89.00
11140;DHT22;5624;49.388;11.350;2023-09-07T04:28:38;14.20;89.20
11140;DHT22;5624;49.388;11.350;2023-09-07T04:31:05;14.20;89.20
11140;DHT22;5624;49.388;11.350;2023-09-07T04:33:32;14.20;89.00
11140;DHT22;5624;49.388;11.350;2023-09-07T04:36:09;14.20;89.00
11140;DHT22;5624;49.388;11.350;2023-09-07T04:38:36;14.10;89.50
11140;DHT22;5624;49.388;11.350;2023-09-07T04:41:08;14.10;89.40
11140;DHT22;5624;49.388;11.350;2023-09-07T04:43:34;14.20;89.30
11140;DHT22;5624;49.388;11.350;2023-09-07T04:46:00;14.20;89.10
11140;DHT22;5624;49.388;11.350;2023-09-07T04:48:26;14.30;88.90
11140;DHT22;5624;49.388;11.350;2023-09-07T04:51:03;14.30;88.80
11140;DHT22;5624;49.388;11.350;2023-09-07T04:53:30;14.30;88.80
11140;DHT22;5624;49.388;11.350;2023-09-07T04:55:57;14.30;88.70
11140;DHT22;5624;49.388;11.350;2023-09-07T04:58:22;14.20;88.90
11140;DHT22;5624;49.388;11.350;2023-09-07T05:00:48;14.20;89.40
11140;DHT22;5624;49.388;11.350;2023-09-07T05:03:14;14.20;89.10
11140;DHT22;5624;49.388;11.350;2023-09-07T05:05:41;14.30;88.90
11140;DHT22;5624;49.388;11.350;2023-09-07T05:08:06;14.60;87.80
11140;DHT22;5624;49.388;11.350;2023-09-07T05:10:35;15.00;85.30
11140;DHT22;5624;49.388;11.350;2023-09-07T05:13:01;15.40;82.90
11140;DHT22;5624;49.388;11.350;2023-09-07T05:15:27;15.30;83.00
11140;DHT22;5624;49.388;11.350;2023-09-07T05:17:53;15.30;83.20
11140;DHT22;5624;49.388;11.350;2023-09-07T05:20:19;15.20;83.60
11140;DHT22;5624;49.388;11.350;2023-09-07T05:22:44;15.20;83.50
11140;DHT22;5624;49.388;11.350;2023-09-07T05:25:11;15.10;83.70
11140;DHT22;5624;49.388;11.350;2023-09-07T05:27:37;15.10;84.00
11140;DHT22;5624;49.388;11.350;2023-09-07T05:30:03;15.10;84.70
11140;DHT22;5624;49.388;11.350;2023-09-07T05:32:29;15.10;83.70
11140;DHT22;5624;49.388;11.350;2023-09-07T05:34:55;15.20;83.50
11140;DHT22;5624;49.388;11.350;2023-09-07T05:37:21;15.30;83.40
11140;DHT22;5624;49.388;11.350;2023-09-07T05:39:46;15.30;83.30
11140;DHT22;5624;49.388;11.350;2023-09-07T05:42:12;15.30;83.00
11140;DHT22;5624;49.388;11.350;2023-09-07T05:44:38;15.40;82.80
11140;DHT22;5624;49.388;11.350;2023-09-07T05:47:04;15.50;83.40
11140;DHT22;5624;49.388;11.350;2023-09-07T05:49:30;15.50;81.80
11140;DHT22;5624;49.388;11.350;2023-09-07T05:51:55;15.60;81.50
11140;DHT22;5624;49.388;11.350;2023-09-07T05:54:21;15.70;81.10
11140;DHT22;5624;49.388;11.350;2023-09-07T05:56:47;15.80;80.30
11140;DHT22;5624;49.388;11.350;2023-09-07T05:59:12;15.90;79.40
11140;DHT22;5624;49.388;11.350;2023-09-07T06:01:39;16.00;79.70
11140;DHT22;5624;49.388;11.350;2023-09-07T06:04:05;16.10;79.10
11140;DHT22;5624;49.388;11.350;2023-09-07T06:06:31;16.10;78.80
11140;DHT22;5624;49.388;11.350;2023-09-07T06:08:57;16.30;78.20
11140;DHT22;5624;49.388;11.350;2023-09-07T06:11:26;16.50;77.20
11140;DHT22;5624;49.388;11.350;2023-09-07T06:13:51;16.60;76.40
11140;DHT22;5624;49.388;11.350;2023-09-07T06:16:17;16.70;76.90
11140;DHT22;5624;49.388;11.350;2023-09-07T06:18:43;16.80;76.10
11140;DHT22;5624;49.388;11.350;2023-09-07T06:21:08;17.00;75.40
11140;DHT22;5624;49.388;11.350;2023-09-07T06:23:34;17.30;75.10
11140;DHT22;5624;49.388;11.350;2023-09-07T06:26:00;17.40;74.60
11140;DHT22;5624;49.388;11.350;2023-09-07T06:28:26;17.60;74.00
11140;DHT22;5624;49.388;11.350;2023-09-07T06:30:51;17.80;72.40
11140;DHT22;5624;49.388;11.350;2023-09-07T06:33:18;17.90;72.00
11140;DHT22;5624;49.388;11.350;2023-09-07T06:35:43;18.10;72.00
11140;DHT22;5624;49.388;11.350;2023-09-07T06:38:09;18.20;70.60
11140;DHT22;5624;49.388;11.350;2023-09-07T06:40:34;18.40;70.50
11140;DHT22;5624;49.388;11.350;2023-09-07T06:43:00;18.50;70.30
11140;DHT22;5624;49.388;11.350;2023-09-07T06:45:26;18.80;68.10
11140;DHT22;5624;49.388;11.350;2023-09-07T06:47:52;19.30;67.60
11140;DHT22;5624;49.388;11.350;2023-09-07T06:50:18;19.80;65.80
11140;DHT22;5624;49.388;11.350;2023-09-07T06:52:43;20.30;63.00
11140;DHT22;5624;49.388;11.350;2023-09-07T06:55:09;21.00;61.50
11140;DHT22;5624;49.388;11.350;2023-09-07T06:57:35;21.60;58.90
11140;DHT22;5624;49.388;11.350;2023-09-07T07:00:01;22.30;57.40
11140;DHT22;5624;49.388;11.350;2023-09-07T07:02:26;22.70;54.30
11140;DHT22;5624;49.388;11.350;2023-09-07T07:04:52;22.70;55.60
11140;DHT22;5624;49.388;11.350;2023-09-07T07:07:17;22.80;55.20
11140;DHT22;5624;49.388;11.350;2023-09-07T07:09:43;23.20;53.30
11140;DHT22;5624;49.388;11.350;2023-09-07T07:12:09;23.60;52.40
11140;DHT22;5624;49.388;11.350;2023-09-07T07:14:34;23.50;52.30
11140;DHT22;5624;49.388;11.350;2023-09-07T07:17:00;23.50;51.50
11140;DHT22;5624;49.388;11.350;2023-09-07T07:19:28;24.00;50.40
11140;DHT22;5624;49.388;11.350;2023-09-07T07:21:54;24.10;49.20
11140;DHT22;5624;49.388;11.350;2023-09-07T07:24:20;24.00;49.60
11140;DHT22;5624;49.388;11.350;2023-09-07T07:26:46;24.10;47.80
11140;DHT22;5624;49.388;11.350;2023-09-07T07:29:12;24.70;48.60
11140;DHT22;5624;49.388;11.350;2023-09-07T07:31:38;25.00;46.70
11140;DHT22;5624;49.388;11.350;2023-09-07T07:34:03;25.60;48.10
11140;DHT22;5624;49.388;11.350;2023-09-07T07:36:29;26.20;43.30
11140;DHT22;5624;49.388;11.350;2023-09-07T07:38:54;25.80;43.70
11140;DHT22;5624;49.388;11.350;2023-09-07T07:41:20;25.90;46.10
11140;DHT22;5624;49.388;11.350;2023-09-07T07:43:46;26.00;45.10
11140;DHT22;5624;49.388;11.350;2023-09-07T07:46:11;25.80;44.10
11140;DHT22;5624;49.388;11.350;2023-09-07T07:48:37;26.20;45.30
11140;DHT22;5624;49.388;11.350;2023-09-07T07:51:03;26.60;42.70
11140;DHT22;5624;49.388;11.350;2023-09-07T07:53:30;26.40;41.80
11140;DHT22;5624;49.388;11.350;2023-09-07T07:55:56;26.40;43.60
11140;DHT22;5624;49.388;11.350;2023-09-07T07:58:22;26.80;42.50
11140;DHT22;5624;49.388;11.350;2023-09-07T08:00:48;27.00;43.30
11140;DHT22;5624;49.388;11.350;2023-09-07T08:03:15;27.30;40.10
11140;DHT22;5624;49.388;11.350;2023-09-07T08:05:41;26.60;41.50
11140;DHT22;5624;49.388;11.350;2023-09-07T08:08:06;26.80;42.00
11140;DHT22;5624;49.388;11.350;2023-09-07T08:10:36;27.20;43.10
11140;DHT22;5624;49.388;11.350;2023-09-07T08:13:03;26.60;41.70
11140;DHT22;5624;49.388;11.350;2023-09-07T08:15:29;27.00;41.40
11140;DHT22;5624;49.388;11.350;2023-09-07T08:17:55;27.10;40.40
11140;DHT22;5624;49.388;11.350;2023-09-07T08:20:21;27.10;41.90
11140;DHT22;5624;49.388;11.350;2023-09-07T08:22:47;27.10;42.30
11140;DHT22;5624;49.388;11.350;2023-09-07T08:25:13;27.60;40.50
11140;DHT22;5624;49.388;11.350;2023-09-07T08:27:40;28.10;39.20
11140;DHT22;5624;49.388;11.350;2023-09-07T08:30:15;28.30;38.90
11140;DHT22;5624;49.388;11.350;2023-09-07T08:32:46;27.70;38.60
11140;DHT22;5624;49.388;11.350;2023-09-07T08:35:12;28.30;42.70
11140;DHT22;5624;49.388;11.350;2023-09-07T08:37:39;28.60;38.50
11140;DHT22;5624;49.388;11.350;2023-09-07T08:40:06;28.50;37.90
11140;DHT22;5624;49.388;11.350;2023-09-07T08:42:40;28.30;37.80
11140;DHT22;5624;49.388;11.350;2023-09-07T08:45:08;27.40;40.10
11140;DHT22;5624;49.388;11.350;2023-09-07T08:47:35;27.50;40.30
11140;DHT22;5624;49.388;11.350;2023-09-07T08:50:01;28.10;38.20
11140;DHT22;5624;49.388;11.350;2023-09-07T08:52:27;28.40;38.40
11140;DHT22;5624;49.388;11.350;2023-09-07T08:54:54;28.50;39.20
11140;DHT22;5624;49.388;11.350;2023-09-07T08:57:21;29.10;39.40
11140;DHT22;5624;49.388;11.350;2023-09-07T08:59:47;29.30;37.80
11140;DHT22;5624;49.388;11.350;2023-09-07T09:02:14;28.70;37.60
11140;DHT22;5624;49.388;11.350;2023-09-07T09:04:41;29.10;37.80
11140;DHT22;5624;49.388;11.350;2023-09-07T09:07:07;29.30;36.60
11140;DHT22;5624;49.388;11.350;2023-09-07T09:09:33;29.30;37.60
11140;DHT22;5624;49.388;11.350;2023-09-07T09:12:11;29.50;36.20
11140;DHT22;5624;49.388;11.350;2023-09-07T09:14:37;29.60;35.70
11140;DHT22;5624;49.388;11.350;2023-09-07T09:17:03;29.70;38.40
11140;DHT22;5624;49.388;11.350;2023-09-07T09:19:32;29.80;36.60
11140;DHT22;5624;49.388;11.350;2023-09-07T09:21:58;30.10;35.10
11140;DHT22;5624;49.388;11.350;2023-09-07T09:24:24;29.30;36.80
11140;DHT22;5624;49.388;11.350;2023-09-07T09:26:49;29.40;36.50
11140;DHT22;5624;49.388;11.350;2023-09-07T09:29:15;29.20;35.40
11140;DHT22;5624;49.388;11.350;2023-09-07T09:31:41;29.70;35.10
11140;DHT22;5624;49.388;11.350;2023-09-07T09:34:06;30.00;36.60
11140;DHT22;5624;49.388;11.350;2023-09-07T09:36:36;30.10;33.90
11140;DHT22;5624;49.388;11.350;2023-09-07T09:39:02;30.00;35.80
11140;DHT22;5624;49.388;11.350;2023-09-07T09:41:31;29.80;33.90
11140;DHT22;5624;49.388;11.350;2023-09-07T09:43:58;30.30;34.10
11140;DHT22;5624;49.388;11.350;2023-09-07T09:46:25;30.40;33.00
11140;DHT22;5624;49.388;11.350;2023-09-07T09:48:51;30.70;33.00
11140;DHT22;5624;49.388;11.350;2023-09-07T09:51:18;30.40;35.10
11140;DHT22;5624;49.388;11.350;2023-09-07T09:53:44;30.60;36.60
11140;DHT22;5624;49.388;11.350;2023-09-07T09:56:10;30.50;33.30
11140;DHT22;5624;49.388;11.350;2023-09-07T09:58:37;30.40;35.50
11140;DHT22;5624;49.388;11.350;2023-09-07T10:01:03;29.70;34.70
11140;DHT22;5624;49.388;11.350;2023-09-07T10:03:38;29.40;35.00
11140;DHT22;5624;49.388;11.350;2023-09-07T10:06:33;29.00;35.30
11140;DHT22;5624;49.388;11.350;2023-09-07T10:09:03;28.90;35.20
11140;DHT22;5624;49.388;11.350;2023-09-07T10:11:33;28.90;37.80
11140;DHT22;5624;49.388;11.350;2023-09-07T10:14:00;28.70;36.50
11140;DHT22;5624;49.388;11.350;2023-09-07T10:16:28;28.80;38.90
11140;DHT22;5624;49.388;11.350;2023-09-07T10:18:54;29.50;37.60
11140;DHT22;5624;49.388;11.350;2023-09-07T10:21:24;30.00;39.50
11140;DHT22;5624;49.388;11.350;2023-09-07T10:23:51;30.00;35.40
11140;DHT22;5624;49.388;11.350;2023-09-07T10:26:19;30.10;35.90
11140;DHT22;5624;49.388;11.350;2023-09-07T10:28:47;30.30;34.40
11140;DHT22;5624;49.388;11.350;2023-09-07T10:33:39;30.00;34.50
11140;DHT22;5624;49.388;11.350;2023-09-07T10:36:05;29.30;35.30
11140;DHT22;5624;49.388;11.350;2023-09-07T10:38:35;29.00;35.10
11140;DHT22;5624;49.388;11.350;2023-09-07T10:41:02;28.90;36.80
11140;DHT22;5624;49.388;11.350;2023-09-07T10:43:30;28.80;36.10
11140;DHT22;5624;49.388;11.350;2023-09-07T10:45:57;28.80;34.30
11140;DHT22;5624;49.388;11.350;2023-09-07T10:48:28;28.50;34.30
11140;DHT22;5624;49.388;11.350;2023-09-07T10:50:54;28.50;35.50
11140;DHT22;5624;49.388;11.350;2023-09-07T10:53:32;28.40;36.30
11140;DHT22;5624;49.388;11.350;2023-09-07T10:56:07;28.50;36.00
11140;DHT22;5624;49.388;11.350;2023-09-07T10:58:35;28.90;36.30
11140;DHT22;5624;49.388;11.350;2023-09-07T11:01:01;29.20;35.60
11140;DHT22;5624;49.388;11.350;2023-09-07T11:03:29;29.20;33.70
11140;DHT22;5624;49.388;11.350;2023-09-07T11:06:01;29.40;33.30
11140;DHT22;5624;49.388;11.350;2023-09-07T11:08:31;29.40;32.40
11140;DHT22;5624;49.388;11.350;2023-09-07T11:10:58;29.20;33.50
11140;DHT22;5624;49.388;11.350;2023-09-07T11:13:24;29.20;32.10
11140;DHT22;5624;49.388;11.350;2023-09-07T11:15:53;29.10;32.60
11140;DHT22;5624;49.388;11.350;2023-09-07T11:18:20;28.70;34.30
11140;DHT22;5624;49.388;11.350;2023-09-07T11:20:48;28.50;33.90
11140;DHT22;5624;49.388;11.350;2023-09-07T11:23:13;28.30;32.20
11140;DHT22;5624;49.388;11.350;2023-09-07T11:25:39;28.50;32.60
11140;DHT22;5624;49.388;11.350;2023-09-07T11:28:06;28.70;32.60
11140;DHT22;5624;49.388;11.350;2023-09-07T11:30:32;29.00;34.10
11140;DHT22;5624;49.388;11.350;2023-09-07T11:33:05;28.90;32.80
11140;DHT22;5624;49.388;11.350;2023-09-07T11:35:32;29.30;32.20
11140;DHT22;5624;49.388;11.350;2023-09-07T11:38:02;29.20;32.40
11140;DHT22;5624;49.388;11.350;2023-09-07T11:40:30;29.10;32.80
11140;DHT22;5624;49.388;11.350;2023-09-07T11:42:56;29.10;33.30
11140;DHT22;5624;49.388;11.350;2023-09-07T11:45:21;29.30;34.00
11140;DHT22;5624;49.388;11.350;2023-09-07T11:47:47;29.10;33.30
11140;DHT22;5624;49.388;11.350;2023-09-07T11:50:12;28.90;34.20
11140;DHT22;5624;49.388;11.350;2023-09-07T11:52:38;28.60;33.70
11140;DHT22;5624;49.388;11.350;2023-09-07T11:55:04;28.70;35.10
11140;DHT22;5624;49.388;11.350;2023-09-07T11:57:30;29.00;33.60
11140;DHT22;5624;49.388;11.350;2023-09-07T11:59:56;29.20;33.00
11140;DHT22;5624;49.388;11.350;2023-09-07T12:02:22;29.10;35.30
11140;DHT22;5624;49.388;11.350;2023-09-07T12:04:48;28.90;36.00
11140;DHT22;5624;49.388;11.350;2023-09-07T12:07:14;29.20;35.10
11140;DHT22;5624;49.388;11.350;2023-09-07T12:09:40;29.40;34.60
11140;DHT22;5624;49.388;11.350;2023-09-07T12:12:06;29.50;35.20
11140;DHT22;5624;49.388;11.350;2023-09-07T12:14:32;29.50;37.10
11140;DHT22;5624;49.388;11.350;2023-09-07T12:16:57;29.30;35.00
11140;DHT22;5624;49.388;11.350;2023-09-07T12:19:23;29.40;36.10
11140;DHT22;5624;49.388;11.350;2023-09-07T12:21:50;29.70;36.50
11140;DHT22;5624;49.388;11.350;2023-09-07T12:24:16;29.80;36.70
11140;DHT22;5624;49.388;11.350;2023-09-07T12:26:41;29.90;35.30
11140;DHT22;5624;49.388;11.350;2023-09-07T12:29:07;30.00;34.90
11140;DHT22;5624;49.388;11.350;2023-09-07T12:31:33;29.50;35.60
11140;DHT22;5624;49.388;11.350;2023-09-07T12:33:58;29.10;36.50
11140;DHT22;5624;49.388;11.350;2023-09-07T12:36:24;28.80;36.60
11140;DHT22;5624;49.388;11.350;2023-09-07T12:38:50;28.70;37.10
11140;DHT22;5624;49.388;11.350;2023-09-07T12:41:15;28.60;36.70
11140;DHT22;5624;49.388;11.350;2023-09-07T12:43:41;28.60;37.00
11140;DHT22;5624;49.388;11.350;2023-09-07T12:46:08;28.30;36.50
11140;DHT22;5624;49.388;11.350;2023-09-07T12:48:35;28.20;37.40
11140;DHT22;5624;49.388;11.350;2023-09-07T12:51:00;28.40;37.90
11140;DHT22;5624;49.388;11.350;2023-09-07T12:53:26;28.60;38.50
11140;DHT22;5624;49.388;11.350;2023-09-07T12:55:54;28.80;38.60
11140;DHT22;5624;49.388;11.350;2023-09-07T12:58:20;28.70;40.20
11140;DHT22;5624;49.388;11.350;2023-09-07T13:00:46;28.70;38.60
11140;DHT22;5624;49.388;11.350;2023-09-07T13:03:14;28.40;34.40
11140;DHT22;5624;49.388;11.350;2023-09-07T13:05:39;28.40;33.90
11140;DHT22;5624;49.388;11.350;2023-09-07T13:08:05;28.10;34.80
11140;DHT22;5624;49.388;11.350;2023-09-07T13:10:32;28.30;35.40
11140;DHT22;5624;49.388;11.350;2023-09-07T13:12:58;28.50;36.90
11140;DHT22;5624;49.388;11.350;2023-09-07T13:15:23;28.50;33.70
11140;DHT22;5624;49.388;11.350;2023-09-07T13:17:49;28.50;34.00
11140;DHT22;5624;49.388;11.350;2023-09-07T13:20:14;28.50;32.80
11140;DHT22;5624;49.388;11.350;2023-09-07T13:22:41;28.40;34.90
11140;DHT22;5624;49.388;11.350;2023-09-07T13:25:07;28.30;33.80
11140;DHT22;5624;49.388;11.350;2023-09-07T13:27:33;28.40;33.20
11140;DHT22;5624;49.388;11.350;2023-09-07T13:29:58;28.20;33.10
11140;DHT22;5624;49.388;11.350;2023-09-07T13:32:25;28.10;33.00
11140;DHT22;5624;49.388;11.350;2023-09-07T13:34:50;28.10;33.60
11140;DHT22;5624;49.388;11.350;2023-09-07T13:37:16;28.30;34.90
11140;DHT22;5624;49.388;11.350;2023-09-07T13:39:41;28.20;32.10
11140;DHT22;5624;49.388;11.350;2023-09-07T13:42:07;28.00;31.20
11140;DHT22;5624;49.388;11.350;2023-09-07T13:44:32;27.90;32.90
11140;DHT22;5624;49.388;11.350;2023-09-07T13:46:58;28.00;32.30
11140;DHT22;5624;49.388;11.350;2023-09-07T13:49:23;27.90;33.00
11140;DHT22;5624;49.388;11.350;2023-09-07T13:51:49;27.90;32.80
11140;DHT22;5624;49.388;11.350;2023-09-07T13:54:14;27.90;33.30
11140;DHT22;5624;49.388;11.350;2023-09-07T13:56:40;28.00;32.40
11140;DHT22;5624;49.388;11.350;2023-09-07T13:59:07;28.00;32.40
11140;DHT22;5624;49.388;11.350;2023-09-07T14:01:33;28.10;31.80
11140;DHT22;5624;49.388;11.350;2023-09-07T14:03:59;28.00;32.30
11140;DHT22;5624;49.388;11.350;2023-09-07T14:06:24;27.90;32.80
11140;DHT22;5624;49.388;11.350;2023-09-07T14:08:50;27.90;33.70
11140;DHT22;5624;49.388;11.350;2023-09-07T14:11:19;27.90;34.50
11140;DHT22;5624;49.388;11.350;2023-09-07T14:13:44;27.80;33.50
11140;DHT22;5624;49.388;11.350;2023-09-07T14:16:10;27.70;34.20
11140;DHT22;5624;49.388;11.350;2023-09-07T14:18:36;27.70;34.70
11140;DHT22;5624;49.388;11.350;2023-09-07T14:21:02;27.70;34.80
11140;DHT22;5624;49.388;11.350;2023-09-07T14:23:28;27.70;34.80
11140;DHT22;5624;49.388;11.350;2023-09-07T14:25:54;27.70;33.90
11140;DHT22;5624;49.388;11.350;2023-09-07T14:28:20;27.60;34.10
11140;DHT22;5624;49.388;11.350;2023-09-07T14:30:46;27.70;35.20
11140;DHT22;5624;49.388;11.350;2023-09-07T14:33:12;27.80;34.60
11140;DHT22;5624;49.388;11.350;2023-09-07T14:35:37;27.80;35.50
11140;DHT22;5624;49.388;11.350;2023-09-07T14:38:03;27.90;34.50
11140;DHT22;5624;49.388;11.350;2023-09-07T14:40:29;27.80;35.10
11140;DHT22;5624;49.388;11.350;2023-09-07T14:42:54;27.80;35.20
11140;DHT22;5624;49.388;11.350;2023-09-07T14:45:23;27.80;35.70
11140;DHT22;5624;49.388;11.350;2023-09-07T14:47:49;27.80;35.50
11140;DHT22;5624;49.388;11.350;2023-09-07T14:50:15;27.80;35.20
11140;DHT22;5624;49.388;11.350;2023-09-07T14:52:40;27.60;35.00
11140;DHT22;5624;49.388;11.350;2023-09-07T14:55:10;27.60;35.30
11140;DHT22;5624;49.388;11.350;2023-09-07T14:57:35;27.60;35.00
11140;DHT22;5624;49.388;11.350;2023-09-07T15:00:01;27.60;36.20
11140;DHT22;5624;49.388;11.350;2023-09-07T15:02:28;27.50;35.40
11140;DHT22;5624;49.388;11.350;2023-09-07T15:04:54;27.50;35.40
11140;DHT22;5624;49.388;11.350;2023-09-07T15:07:20;27.50;35.30
11140;DHT22;5624;49.388;11.350;2023-09-07T15:09:48;27.50;34.90
11140;DHT22;5624;49.388;11.350;2023-09-07T15:12:13;27.40;36.10
11140;DHT22;5624;49.388;11.350;2023-09-07T15:14:39;27.40;35.50
11140;DHT22;5624;49.388;11.350;2023-09-07T15:17:05;27.30;36.40
11140;DHT22;5624;49.388;11.350;2023-09-07T15:19:30;27.20;36.70
11140;DHT22;5624;49.388;11.350;2023-09-07T15:21:59;27.30;36.60
11140;DHT22;5624;49.388;11.350;2023-09-07T15:24:25;27.30;36.90
11140;DHT22;5624;49.388;11.350;2023-09-07T15:26:50;27.40;36.40
11140;DHT22;5624;49.388;11.350;2023-09-07T15:29:16;27.30;37.10